Terminal Aerodrome Forecast
Issued by NWS Denver/Boulder, CO

Home | Current Version | Previous Version | Text Only | Print | Product List | Glossary On
Versions: 1 2 3 4 5 6 7 8 9 10 11 12 13 14 15 16 17 18 19 20 21 22 23 24 25 26 27 28 29 30 31 32 33 34 35 36 37 38 39 40 41 42 43 44 45 46 47 48 49 50
271
FTUS45 KBOU 172119 AAE
TAFDEN
TAF AMD
KDEN 172119Z 1721/1824 28035G54KT 2SM BLDU BKN020 BKN150
     FM172300 30025G40KT 6SM BLDU FEW025 SCT150
     FM180100 27016G25KT P6SM FEW150 SCT200
     FM180900 23012KT P6SM FEW200
     FM181600 31008KT P6SM SKC
     FM181900 04006KT P6SM FEW250=

USA.gov is the U.S. government's official web portal to all federal, state and local government web resources and services.